createdAt,value
2018-09-14T00:00:21.642Z,94.70
2018-09-14T00:02:50.106Z,94.50
2018-09-14T00:05:18.590Z,94.70
2018-09-14T00:07:47.048Z,94.80
2018-09-14T00:10:15.534Z,94.90
2018-09-14T00:12:44.017Z,94.90
2018-09-14T00:15:12.536Z,94.80
2018-09-14T00:17:41.008Z,94.80
2018-09-14T00:20:09.451Z,94.70
2018-09-14T00:22:37.841Z,94.80
2018-09-14T00:25:06.286Z,94.90
2018-09-14T00:27:34.789Z,95.00
2018-09-14T00:30:03.297Z,95.00
2018-09-14T00:32:31.736Z,95.00
2018-09-14T00:35:00.178Z,95.10
2018-09-14T00:37:28.800Z,94.90
2018-09-14T00:39:57.344Z,95.20
2018-09-14T00:42:25.824Z,95.00
2018-09-14T00:44:54.282Z,95.00
2018-09-14T00:47:22.695Z,94.70
2018-09-14T00:49:51.143Z,95.10
2018-09-14T00:52:19.647Z,95.10
2018-09-14T00:54:48.103Z,95.20
2018-09-14T00:57:16.555Z,95.00
2018-09-14T00:59:45.008Z,95.20
2018-09-14T01:02:13.632Z,95.30
2018-09-14T01:04:42.053Z,95.30
2018-09-14T01:07:10.484Z,95.20
2018-09-14T01:09:38.911Z,95.20
2018-09-14T01:12:07.399Z,95.30
2018-09-14T01:14:35.828Z,95.30
2018-09-14T01:17:04.313Z,95.30
2018-09-14T01:19:32.828Z,95.30
2018-09-14T01:22:01.256Z,95.10
2018-09-14T01:24:29.696Z,95.30
2018-09-14T01:26:58.149Z,95.30
2018-09-14T01:29:26.570Z,95.30
2018-09-14T01:31:55.090Z,95.30
2018-09-14T01:34:23.625Z,95.30
2018-09-14T01:36:52.082Z,95.40
2018-09-14T01:39:20.526Z,95.50
2018-09-14T01:41:48.976Z,95.60
2018-09-14T01:44:17.566Z,95.50
2018-09-14T01:46:46.072Z,95.60
2018-09-14T01:49:14.544Z,95.50
2018-09-14T01:51:42.992Z,95.60
2018-09-14T01:54:11.549Z,95.50
2018-09-14T01:56:40.118Z,95.60
2018-09-14T01:59:08.680Z,95.50
2018-09-14T02:01:37.126Z,96.00
2018-09-14T02:04:05.552Z,95.40
2018-09-14T02:06:33.966Z,95.60
2018-09-14T02:09:02.391Z,95.70
2018-09-14T02:11:30.778Z,95.80
2018-09-14T02:13:59.212Z,95.60
2018-09-14T02:16:27.751Z,95.50
2018-09-14T02:18:56.205Z,95.70
2018-09-14T02:21:24.632Z,95.50
2018-09-14T02:23:53.189Z,95.60
2018-09-14T02:26:21.715Z,95.50
2018-09-14T02:28:50.126Z,95.80
2018-09-14T02:31:18.580Z,95.60
2018-09-14T02:33:47.013Z,95.60
2018-09-14T02:36:15.506Z,95.60
2018-09-14T02:38:43.918Z,95.60
2018-09-14T02:41:12.313Z,95.50
2018-09-14T02:43:40.791Z,95.60
2018-09-14T02:46:09.251Z,95.80
2018-09-14T02:48:37.717Z,95.90
2018-09-14T02:51:06.248Z,95.90
2018-09-14T02:53:34.737Z,95.70
2018-09-14T02:56:03.185Z,95.90
2018-09-14T02:58:31.714Z,96.00
2018-09-14T03:01:00.185Z,96.00
2018-09-14T03:03:28.602Z,95.90
2018-09-14T03:05:57.028Z,95.60
2018-09-14T03:08:25.619Z,95.80
2018-09-14T03:10:54.078Z,95.50
2018-09-14T03:13:22.516Z,95.60
2018-09-14T03:15:51.084Z,95.90
2018-09-14T03:18:19.640Z,95.90
2018-09-14T03:20:48.098Z,95.80
2018-09-14T03:23:16.589Z,95.70
2018-09-14T03:25:44.995Z,95.70
2018-09-14T03:28:13.460Z,95.80
2018-09-14T03:30:41.966Z,95.90
2018-09-14T03:33:10.384Z,95.90
2018-09-14T03:35:38.827Z,96.30
2018-09-14T03:38:07.248Z,96.20
2018-09-14T03:40:35.774Z,96.10
2018-09-14T03:43:04.211Z,96.20
2018-09-14T03:45:32.625Z,96.20
2018-09-14T03:48:01.009Z,96.30
2018-09-14T03:50:29.460Z,96.20
2018-09-14T03:52:57.957Z,96.20
2018-09-14T03:55:26.987Z,96.10
2018-09-14T03:57:55.452Z,96.30
2018-09-14T04:00:23.888Z,96.30
2018-09-14T04:02:52.288Z,96.20
2018-09-14T04:05:20.712Z,96.10
2018-09-14T04:07:49.163Z,96.10
2018-09-14T04:10:17.633Z,96.20
2018-09-14T04:12:46.117Z,96.30
2018-09-14T04:15:14.512Z,96.20
2018-09-14T04:17:43.656Z,96.30
2018-09-14T04:20:12.036Z,96.10
2018-09-14T04:22:40.477Z,96.50
2018-09-14T04:25:08.861Z,96.40
2018-09-14T04:27:37.323Z,96.40
2018-09-14T04:30:05.911Z,96.30
2018-09-14T04:32:34.369Z,96.40
2018-09-14T04:35:02.783Z,96.20
2018-09-14T04:37:31.232Z,96.30
2018-09-14T04:39:59.754Z,96.10
2018-09-14T04:42:28.180Z,96.30
2018-09-14T04:44:56.600Z,96.30
2018-09-14T04:47:25.031Z,96.20
2018-09-14T04:49:53.442Z,96.10
2018-09-14T04:52:21.855Z,96.10
2018-09-14T04:54:50.255Z,96.20
2018-09-14T04:57:18.706Z,96.00
2018-09-14T04:59:47.180Z,96.10
2018-09-14T05:02:15.782Z,96.10
2018-09-14T05:04:44.211Z,96.20
2018-09-14T05:07:12.703Z,96.20
2018-09-14T05:09:41.655Z,96.20
2018-09-14T05:12:10.131Z,96.20
2018-09-14T05:14:38.560Z,96.20
2018-09-14T05:17:07.777Z,96.30
2018-09-14T05:19:36.303Z,96.00
2018-09-14T05:22:04.842Z,96.10
2018-09-14T05:24:33.360Z,96.30
2018-09-14T05:27:01.740Z,96.40
2018-09-14T05:29:30.190Z,96.60
2018-09-14T05:31:58.596Z,96.30
2018-09-14T05:34:27.836Z,96.40
2018-09-14T05:36:56.257Z,96.40
2018-09-14T05:39:24.680Z,96.50
2018-09-14T05:41:53.234Z,97.00
2018-09-14T05:44:21.719Z,96.80
2018-09-14T05:46:50.144Z,97.20
2018-09-14T05:49:18.625Z,97.50
2018-09-14T05:51:47.068Z,97.50
2018-09-14T05:54:15.592Z,97.60
2018-09-14T05:56:44.099Z,97.20
2018-09-14T05:59:12.518Z,97.50
2018-09-14T06:01:41.104Z,97.20
2018-09-14T06:04:09.544Z,97.00
2018-09-14T06:06:38.077Z,97.10
2018-09-14T06:09:09.706Z,97.40
2018-09-14T06:11:38.184Z,97.60
2018-09-14T06:14:06.791Z,97.40
2018-09-14T06:16:36.170Z,97.30
2018-09-14T06:19:04.686Z,97.50
2018-09-14T06:21:33.924Z,97.80
2018-09-14T06:24:02.407Z,97.80
2018-09-14T06:26:30.874Z,97.80
2018-09-14T06:29:01.209Z,97.40
2018-09-14T06:31:29.633Z,97.40
2018-09-14T06:33:58.062Z,97.50
2018-09-14T06:36:26.579Z,97.90
2018-09-14T06:38:55.050Z,97.50
2018-09-14T06:41:23.546Z,96.90
2018-09-14T06:43:52.371Z,96.60
2018-09-14T06:46:20.880Z,96.00
2018-09-14T06:48:49.360Z,95.80
2018-09-14T06:51:17.816Z,95.70
2018-09-14T06:53:47.309Z,95.40
2018-09-14T06:56:15.794Z,96.00
2018-09-14T06:58:52.673Z,95.20
2018-09-14T07:01:21.182Z,94.50
2018-09-14T07:03:50.468Z,94.30
2018-09-14T07:06:18.990Z,94.70
2018-09-14T07:08:47.582Z,95.00
2018-09-14T07:11:16.213Z,94.20
2018-09-14T07:13:44.735Z,93.70
2018-09-14T07:16:13.237Z,93.70
2018-09-14T07:18:41.751Z,94.60
2018-09-14T07:21:10.222Z,95.40
2018-09-14T07:23:38.656Z,95.10
2018-09-14T07:26:07.281Z,94.90
2018-09-14T07:28:36.539Z,94.50
2018-09-14T07:31:04.973Z,93.90
2018-09-14T07:33:33.390Z,93.00
2018-09-14T07:36:01.876Z,91.70
2018-09-14T07:38:30.381Z,91.80
2018-09-14T07:40:58.826Z,91.90
2018-09-14T07:43:27.250Z,91.70
2018-09-14T07:45:55.704Z,91.40
2018-09-14T07:48:24.234Z,91.70
2018-09-14T07:50:52.689Z,91.60
2018-09-14T07:53:21.136Z,90.70
2018-09-14T07:55:49.615Z,90.70
2018-09-14T07:58:18.097Z,90.10
2018-09-14T08:00:46.512Z,91.60
2018-09-14T08:03:15.032Z,92.30
2018-09-14T08:05:43.503Z,90.60
2018-09-14T08:08:12.022Z,90.60
2018-09-14T08:10:40.555Z,90.70
2018-09-14T08:13:09.086Z,90.10
2018-09-14T08:15:38.439Z,89.20
2018-09-14T08:18:06.910Z,87.70
2018-09-14T08:20:35.354Z,88.60
2018-09-14T08:23:03.820Z,89.00
2018-09-14T08:25:32.311Z,89.00
2018-09-14T08:28:00.808Z,87.90
2018-09-14T08:30:29.241Z,88.00
2018-09-14T08:32:57.713Z,84.30
2018-09-14T08:35:26.173Z,84.80
2018-09-14T08:37:54.647Z,86.10
2018-09-14T08:40:23.065Z,84.10
2018-09-14T08:42:52.095Z,84.90
2018-09-14T08:45:20.557Z,85.10
2018-09-14T08:47:49.126Z,84.90
2018-09-14T08:50:17.543Z,85.10
2018-09-14T08:52:46.098Z,84.10
2018-09-14T08:55:14.592Z,83.80
2018-09-14T08:57:43.110Z,81.10
2018-09-14T09:00:11.667Z,81.70
2018-09-14T09:02:40.131Z,79.20
2018-09-14T09:05:08.607Z,79.40
2018-09-14T09:07:37.038Z,76.10
2018-09-14T09:10:05.604Z,76.10
2018-09-14T09:12:34.080Z,78.60
2018-09-14T09:15:02.491Z,77.40
2018-09-14T09:17:31.023Z,75.20
2018-09-14T09:20:00.392Z,74.40
2018-09-14T09:22:28.800Z,76.40
2018-09-14T09:24:57.392Z,75.30
2018-09-14T09:27:25.882Z,75.50
2018-09-14T09:29:54.354Z,74.90
2018-09-14T09:32:22.837Z,71.10
2018-09-14T09:34:51.325Z,70.30
2018-09-14T09:37:19.806Z,72.50
2018-09-14T09:39:48.280Z,68.20
2018-09-14T09:42:16.730Z,69.30
2018-09-14T09:44:45.172Z,67.40
2018-09-14T09:47:13.589Z,67.90
2018-09-14T09:49:42.011Z,63.10
2018-09-14T09:52:10.390Z,62.50
2018-09-14T09:54:39.238Z,63.10
2018-09-14T09:57:07.780Z,61.40
2018-09-14T09:59:36.216Z,63.80
2018-09-14T10:02:09.926Z,65.30
2018-09-14T10:04:43.688Z,60.80
2018-09-14T10:07:12.162Z,60.30
2018-09-14T10:09:40.684Z,63.00
2018-09-14T10:12:09.114Z,59.50
2018-09-14T10:14:38.632Z,59.20
2018-09-14T10:17:07.078Z,61.20
2018-09-14T10:19:35.810Z,59.00
2018-09-14T10:22:04.381Z,57.00
2018-09-14T10:24:32.812Z,57.50
2018-09-14T10:27:01.289Z,55.30
2018-09-14T10:29:29.808Z,54.20
2018-09-14T10:31:58.260Z,52.50
2018-09-14T10:34:26.808Z,51.40
2018-09-14T10:36:55.302Z,53.80
2018-09-14T10:39:24.723Z,53.70
2018-09-14T10:41:53.221Z,51.60
2018-09-14T10:44:21.743Z,56.20
2018-09-14T10:46:50.185Z,57.80
2018-09-14T10:49:18.630Z,55.40
2018-09-14T10:51:47.877Z,52.30
2018-09-14T10:54:16.378Z,50.80
2018-09-14T10:56:44.991Z,51.80
2018-09-14T10:59:13.431Z,49.00
2018-09-14T11:01:41.852Z,51.00
2018-09-14T11:04:10.340Z,51.30
2018-09-14T11:06:38.880Z,51.10
2018-09-14T11:09:10.476Z,52.10
2018-09-14T11:11:39.520Z,52.40
2018-09-14T11:14:08.166Z,51.40
2018-09-14T11:16:37.117Z,51.70
2018-09-14T11:19:05.775Z,51.30
2018-09-14T11:21:34.541Z,51.80
2018-09-14T11:24:03.104Z,49.90
2018-09-14T11:26:31.740Z,51.80
2018-09-14T11:29:00.321Z,52.30
2018-09-14T11:31:29.105Z,52.60
2018-09-14T11:33:58.266Z,50.70
2018-09-14T11:36:27.267Z,49.20
2018-09-14T11:38:55.701Z,48.30
2018-09-14T11:41:24.156Z,50.30
2018-09-14T11:43:52.594Z,48.80
2018-09-14T11:46:21.258Z,49.40
2018-09-14T11:48:50.509Z,48.40
2018-09-14T11:51:19.618Z,48.90
2018-09-14T11:53:48.080Z,50.60
2018-09-14T11:56:16.531Z,48.00
2018-09-14T11:58:45.069Z,47.20
2018-09-14T12:01:13.554Z,47.90
2018-09-14T12:03:41.995Z,47.50
2018-09-14T12:06:10.497Z,46.10
2018-09-14T12:08:38.966Z,46.30
2018-09-14T12:11:07.544Z,47.60
2018-09-14T12:13:36.056Z,48.90
2018-09-14T12:16:04.466Z,48.90
2018-09-14T12:18:32.930Z,50.10
2018-09-14T12:21:01.410Z,49.50
2018-09-14T12:23:29.856Z,48.40
2018-09-14T12:25:58.292Z,45.80
2018-09-14T12:28:26.761Z,47.20
2018-09-14T12:30:55.356Z,47.10
2018-09-14T12:33:23.838Z,50.30
2018-09-14T12:35:52.292Z,49.70
2018-09-14T12:38:20.703Z,51.10
2018-09-14T12:40:49.150Z,51.30
2018-09-14T12:43:17.619Z,49.70
2018-09-14T12:45:46.084Z,49.60
2018-09-14T12:48:14.550Z,50.90
2018-09-14T12:50:43.112Z,48.80
2018-09-14T12:53:11.598Z,49.00
2018-09-14T12:55:40.065Z,47.30
2018-09-14T12:58:08.528Z,46.70
2018-09-14T13:00:36.992Z,48.80
2018-09-14T13:03:05.541Z,48.80
2018-09-14T13:05:34.027Z,49.00
2018-09-14T13:08:02.658Z,48.40
2018-09-14T13:10:31.152Z,49.00
2018-09-14T13:12:59.767Z,49.50
2018-09-14T13:15:28.258Z,49.30
2018-09-14T13:17:56.785Z,49.00
2018-09-14T13:20:25.284Z,48.40
2018-09-14T13:22:53.719Z,50.60
2018-09-14T13:25:22.231Z,51.70
2018-09-14T13:27:50.697Z,51.70
2018-09-14T13:30:19.181Z,51.70
2018-09-14T13:32:52.651Z,51.90
2018-09-14T13:35:22.979Z,52.20
2018-09-14T13:37:51.954Z,52.80
2018-09-14T13:40:20.742Z,54.50
2018-09-14T13:42:49.215Z,55.00
2018-09-14T13:45:17.975Z,55.10
2018-09-14T13:47:46.477Z,54.40
2018-09-14T13:50:14.968Z,56.10
2018-09-14T13:52:43.414Z,57.50
2018-09-14T13:55:11.863Z,55.20
2018-09-14T13:57:40.288Z,56.50
2018-09-14T14:00:08.838Z,55.60
2018-09-14T14:02:37.302Z,55.90
2018-09-14T14:05:05.815Z,55.60
2018-09-14T14:07:34.270Z,54.60
2018-09-14T14:10:02.738Z,57.30
2018-09-14T14:12:31.236Z,56.60
2018-09-14T14:14:59.695Z,53.90
2018-09-14T14:17:28.277Z,55.60
2018-09-14T14:19:56.654Z,55.20
2018-09-14T14:22:25.274Z,56.20
2018-09-14T14:24:53.725Z,53.80
2018-09-14T14:27:22.184Z,59.90
2018-09-14T14:29:50.691Z,61.70
2018-09-14T14:32:20.196Z,57.80
2018-09-14T14:34:48.657Z,58.40
2018-09-14T14:37:17.091Z,58.30
2018-09-14T14:39:45.571Z,59.10
2018-09-14T14:42:14.061Z,59.40
2018-09-14T14:44:42.542Z,59.20
2018-09-14T14:47:11.038Z,58.30
2018-09-14T14:49:39.546Z,58.60
2018-09-14T14:52:08.096Z,59.00
2018-09-14T14:54:36.529Z,59.50
2018-09-14T14:57:04.991Z,62.20
2018-09-14T14:59:33.532Z,59.30
2018-09-14T15:02:02.124Z,59.90
2018-09-14T15:04:30.543Z,59.90
2018-09-14T15:06:58.961Z,60.00
2018-09-14T15:09:27.516Z,60.00
2018-09-14T15:11:55.952Z,59.40
2018-09-14T15:14:24.391Z,60.40
2018-09-14T15:16:52.819Z,59.40
2018-09-14T15:19:21.355Z,57.80
2018-09-14T15:21:49.942Z,59.20
2018-09-14T15:24:18.357Z,57.90
2018-09-14T15:26:46.868Z,59.40
2018-09-14T15:29:15.328Z,57.90
2018-09-14T15:31:43.835Z,59.40
2018-09-14T15:34:18.802Z,59.00
2018-09-14T15:36:47.260Z,59.00
2018-09-14T15:39:15.697Z,60.20
2018-09-14T15:41:44.177Z,59.90
2018-09-14T15:44:12.659Z,60.50
2018-09-14T15:46:41.113Z,60.00
2018-09-14T15:49:09.588Z,60.00
2018-09-14T15:51:38.071Z,61.00
2018-09-14T15:54:06.686Z,62.00
2018-09-14T15:56:35.142Z,60.30
2018-09-14T15:59:03.601Z,60.60
2018-09-14T16:01:32.093Z,63.20
2018-09-14T16:04:00.527Z,61.50
2018-09-14T16:06:29.048Z,62.50
2018-09-14T16:08:57.475Z,63.60
2018-09-14T16:11:26.009Z,63.30
2018-09-14T16:13:54.582Z,63.80
2018-09-14T16:16:22.987Z,65.00
2018-09-14T16:18:51.476Z,66.50
2018-09-14T16:21:20.042Z,66.60
2018-09-14T16:23:48.612Z,66.70
2018-09-14T16:26:17.667Z,65.20
2018-09-14T16:28:46.499Z,66.90
2018-09-14T16:31:14.971Z,66.10
2018-09-14T16:33:44.281Z,67.40
2018-09-14T16:36:12.790Z,66.50
2018-09-14T16:38:41.731Z,66.90
2018-09-14T16:41:10.196Z,67.00
2018-09-14T16:43:38.657Z,66.70
2018-09-14T16:46:07.127Z,68.20
2018-09-14T16:48:35.601Z,68.40
2018-09-14T16:51:04.079Z,68.80
2018-09-14T16:53:32.532Z,67.80
2018-09-14T16:56:00.998Z,68.40
2018-09-14T16:58:29.567Z,69.50
2018-09-14T17:00:58.059Z,69.20
2018-09-14T17:03:26.521Z,68.60
2018-09-14T17:05:54.973Z,68.60
2018-09-14T17:08:23.607Z,69.70
2018-09-14T17:10:52.189Z,69.50
2018-09-14T17:13:20.663Z,69.60
2018-09-14T17:15:49.672Z,68.50
2018-09-14T17:18:18.318Z,68.50
2018-09-14T17:20:46.753Z,69.80
2018-09-14T17:23:15.341Z,69.90
2018-09-14T17:25:43.924Z,69.80
2018-09-14T17:28:12.870Z,70.60
2018-09-14T17:30:41.359Z,70.60
2018-09-14T17:33:09.820Z,71.00
2018-09-14T17:35:38.307Z,70.40
2018-09-14T17:38:06.827Z,70.00
2018-09-14T17:40:35.295Z,70.90
2018-09-14T17:43:03.706Z,72.10
2018-09-14T17:45:32.193Z,72.70
2018-09-14T17:48:00.766Z,72.50
2018-09-14T17:50:29.195Z,74.10
2018-09-14T17:52:57.616Z,74.10
2018-09-14T17:55:26.058Z,74.30
2018-09-14T17:57:54.608Z,74.70
2018-09-14T18:00:23.016Z,75.90
2018-09-14T18:02:51.482Z,77.20
2018-09-14T18:05:19.924Z,75.90
2018-09-14T18:07:48.500Z,75.40
2018-09-14T18:10:16.918Z,75.50
2018-09-14T18:12:45.386Z,73.90
2018-09-14T18:15:14.026Z,74.10
2018-09-14T18:17:42.611Z,75.30
2018-09-14T18:20:11.613Z,76.10
2018-09-14T18:22:40.057Z,76.50
2018-09-14T18:25:08.569Z,75.30
2018-09-14T18:27:37.118Z,75.10
2018-09-14T18:30:06.018Z,74.40
2018-09-14T18:32:34.461Z,77.00
2018-09-14T18:35:03.016Z,76.40
2018-09-14T18:37:31.490Z,77.40
2018-09-14T18:39:59.907Z,77.90
2018-09-14T18:42:28.410Z,76.60
2018-09-14T18:44:56.889Z,77.00
2018-09-14T18:47:25.319Z,77.80
2018-09-14T18:49:53.827Z,77.40
2018-09-14T18:52:22.288Z,79.30
2018-09-14T18:54:50.750Z,79.80
2018-09-14T18:57:19.203Z,87.30
2018-09-14T18:59:47.733Z,79.20
2018-09-14T19:02:16.192Z,79.70
2018-09-14T19:04:44.700Z,80.30
2018-09-14T19:07:13.104Z,81.20
2018-09-14T19:09:42.428Z,80.70
2018-09-14T19:12:10.880Z,80.20
2018-09-14T19:14:39.624Z,78.90
2018-09-14T19:17:08.070Z,79.70
2018-09-14T19:19:36.629Z,80.10
2018-09-14T19:22:05.318Z,80.10
2018-09-14T19:24:34.456Z,78.50
2018-09-14T19:27:02.919Z,79.50
2018-09-14T19:29:31.368Z,78.00
2018-09-14T19:31:59.881Z,79.00
2018-09-14T19:34:28.301Z,79.20
2018-09-14T19:36:57.575Z,80.50
2018-09-14T19:39:26.007Z,80.10
2018-09-14T19:41:54.405Z,80.70
2018-09-14T19:44:22.891Z,81.40
2018-09-14T19:46:51.408Z,82.10
2018-09-14T19:49:19.908Z,81.80
2018-09-14T19:51:48.382Z,82.30
2018-09-14T19:54:16.912Z,81.90
2018-09-14T19:56:45.471Z,83.10
2018-09-14T19:59:13.944Z,82.60
2018-09-14T20:01:42.898Z,82.80
2018-09-14T20:04:11.358Z,83.20
2018-09-14T20:06:39.931Z,84.20
2018-09-14T20:09:10.942Z,83.90
2018-09-14T20:11:39.663Z,82.60
2018-09-14T20:14:08.169Z,83.90
2018-09-14T20:16:37.795Z,83.30
2018-09-14T20:19:06.380Z,84.00
2018-09-14T20:21:34.848Z,83.70
2018-09-14T20:24:03.420Z,84.10
2018-09-14T20:26:31.896Z,84.90
2018-09-14T20:29:00.293Z,83.50
2018-09-14T20:31:28.751Z,83.80
2018-09-14T20:33:57.218Z,84.90
2018-09-14T20:36:25.615Z,85.20
2018-09-14T20:38:54.048Z,83.90
2018-09-14T20:41:22.534Z,84.50
2018-09-14T20:43:50.977Z,84.80
2018-09-14T20:46:19.585Z,84.60
2018-09-14T20:48:48.044Z,84.70
2018-09-14T20:51:16.504Z,85.50
2018-09-14T20:53:44.926Z,84.50
2018-09-14T20:56:13.416Z,84.00
2018-09-14T20:58:41.876Z,85.00
2018-09-14T21:01:10.448Z,85.10
2018-09-14T21:03:38.942Z,84.00
2018-09-14T21:06:07.500Z,83.50
2018-09-14T21:08:36.470Z,83.10
2018-09-14T21:11:04.949Z,82.80
2018-09-14T21:13:33.401Z,83.00
2018-09-14T21:16:01.885Z,83.20
2018-09-14T21:18:30.383Z,82.20
2018-09-14T21:20:59.376Z,83.90
2018-09-14T21:23:27.815Z,83.70
2018-09-14T21:25:56.313Z,83.20
2018-09-14T21:28:25.046Z,84.00
2018-09-14T21:30:53.508Z,84.60
2018-09-14T21:33:21.929Z,85.60
2018-09-14T21:35:51.330Z,84.90
2018-09-14T21:38:19.748Z,83.90
2018-09-14T21:40:48.315Z,85.00
2018-09-14T21:43:16.867Z,86.30
2018-09-14T21:45:45.289Z,86.10
2018-09-14T21:48:13.849Z,87.90
2018-09-14T21:50:42.263Z,87.10
2018-09-14T21:53:10.694Z,87.00
2018-09-14T21:55:39.212Z,87.50
2018-09-14T21:58:07.658Z,85.90
2018-09-14T22:00:41.444Z,86.80
2018-09-14T22:03:09.880Z,86.70
2018-09-14T22:05:38.351Z,87.10
2018-09-14T22:08:06.754Z,87.10
2018-09-14T22:10:35.372Z,86.90
2018-09-14T22:13:04.448Z,87.50
2018-09-14T22:15:32.862Z,88.10
2018-09-14T22:18:01.344Z,88.80
2018-09-14T22:20:29.817Z,88.20
2018-09-14T22:22:58.282Z,88.50
2018-09-14T22:25:26.744Z,89.00
2018-09-14T22:27:55.171Z,89.40
2018-09-14T22:30:23.654Z,90.00
2018-09-14T22:32:52.223Z,90.20
2018-09-14T22:35:20.691Z,90.30
2018-09-14T22:37:49.239Z,90.40
2018-09-14T22:40:17.680Z,90.40
2018-09-14T22:42:46.136Z,90.40
2018-09-14T22:45:14.636Z,90.60
2018-09-14T22:47:43.027Z,90.60
2018-09-14T22:50:11.514Z,91.00
2018-09-14T22:52:39.970Z,90.60
2018-09-14T22:55:08.390Z,90.70
2018-09-14T22:57:36.849Z,90.70
2018-09-14T23:00:05.445Z,90.80
2018-09-14T23:02:33.884Z,90.90
2018-09-14T23:05:02.319Z,90.80
2018-09-14T23:07:30.778Z,90.40
2018-09-14T23:09:59.227Z,91.00
2018-09-14T23:12:27.667Z,90.60
2018-09-14T23:14:56.121Z,90.60
2018-09-14T23:17:24.579Z,90.70
2018-09-14T23:19:52.998Z,90.70
2018-09-14T23:22:21.401Z,90.50
2018-09-14T23:24:49.929Z,90.70
2018-09-14T23:27:18.389Z,90.60
2018-09-14T23:29:46.828Z,90.50
2018-09-14T23:32:15.445Z,90.80
2018-09-14T23:34:43.882Z,90.70
2018-09-14T23:37:13.216Z,90.70
2018-09-14T23:39:41.714Z,90.60
2018-09-14T23:42:10.182Z,90.70
2018-09-14T23:44:38.607Z,90.70
2018-09-14T23:47:07.250Z,90.70
2018-09-14T23:49:35.686Z,90.80
2018-09-14T23:52:04.152Z,90.70
2018-09-14T23:54:32.694Z,90.90
2018-09-14T23:57:01.113Z,90.80
2018-09-14T23:59:29.605Z,90.90
